Time;durP1;ratioP1;P1;durP2;ratioP2;P2;SDS_P1;SDS_P2;PMS_P1;PMS_P2;Temp;Humidity;BMP_temperature;BMP_pressure;BME280_temperature;BME280_humidity;BME280_pressure;Samples;Min_cycle;Max_cycle;Signal;HPM_P1;HPM_P2
2021/05/08 00:04:07;;;;;;;6.13;5.53;;;3.70;99.90;;;5.18;100.00;100555.47;5009862;28;35220;-58
2021/05/08 00:07:26;;;;;;;6.53;5.77;;;3.70;99.90;;;5.11;100.00;100554.22;5000181;28;37819;-57
2021/05/08 00:10:38;;;;;;;5.87;5.37;;;3.60;99.90;;;4.98;100.00;100555.16;5015630;28;32281;-58
2021/05/08 00:13:49;;;;;;;6.83;6.03;;;3.50;99.90;;;4.99;100.00;100564.81;5011279;28;29262;-58
2021/05/08 00:17:00;;;;;;;6.80;5.60;;;3.50;99.90;;;5.00;100.00;100560.34;5008691;28;28678;-57
2021/05/08 00:20:53;;;;;;;8.00;5.23;;;3.50;99.90;;;5.11;100.00;100560.38;4998570;28;28971;-57
2021/05/08 00:24:05;;;;;;;6.50;5.87;;;3.50;99.90;;;5.12;100.00;100562.06;4999670;28;34489;-57
2021/05/08 00:27:16;;;;;;;5.97;5.37;;;3.50;99.90;;;5.15;100.00;100563.66;5010510;28;27000;-56
2021/05/08 00:30:29;;;;;;;7.67;5.10;;;3.50;99.90;;;5.11;100.00;100563.03;5016325;28;31503;-57
2021/05/08 00:34:06;;;;;;;5.77;5.03;;;3.50;99.90;;;5.14;100.00;100565.47;5004970;28;33792;-56
2021/05/08 00:37:33;;;;;;;6.37;5.70;;;3.50;99.90;;;5.12;100.00;100563.88;5014857;28;32501;-57
2021/05/08 00:40:45;;;;;;;6.60;5.60;;;3.40;99.90;;;5.15;100.00;100564.50;5012509;28;38223;-57
2021/05/08 00:44:01;;;;;;;6.03;5.43;;;3.40;99.90;;;5.08;100.00;100565.91;4996816;28;29789;-58
2021/05/08 00:47:18;;;;;;;6.00;5.40;;;3.40;99.90;;;5.14;100.00;100569.91;4997751;28;32802;-57
2021/05/08 00:50:31;;;;;;;5.47;4.97;;;3.40;99.90;;;5.21;100.00;100563.16;4994691;28;34068;-57
2021/05/08 00:53:42;;;;;;;5.80;5.20;;;3.40;99.90;;;5.17;100.00;100567.88;5000676;28;32659;-58
2021/05/08 00:56:55;;;;;;;6.20;5.60;;;3.40;99.90;;;5.19;100.00;100560.66;4998131;28;41558;-58
2021/05/08 01:00:07;;;;;;;5.63;5.13;;;3.40;99.90;;;5.11;100.00;100567.50;5004627;28;35283;-57
2021/05/08 01:03:19;;;;;;;5.37;4.87;;;3.40;99.90;;;5.05;100.00;100571.47;4994250;28;41406;-58
2021/05/08 01:06:39;;;;;;;5.90;5.40;;;3.30;99.90;;;4.97;100.00;100577.34;4994560;28;35606;-57
2021/05/08 01:09:51;;;;;;;6.17;5.57;;;3.30;99.90;;;4.92;100.00;100576.84;5011810;28;41917;-57
2021/05/08 01:16:51;;;;;;;6.93;6.20;;;3.30;99.90;;;4.86;100.00;100573.78;4950286;28;46867;-57
2021/05/08 01:20:03;;;;;;;6.33;5.63;;;3.20;99.90;;;4.84;100.00;100578.34;4934262;28;34715;-58
2021/05/08 01:23:36;;;;;;;6.20;5.60;;;3.20;99.90;;;4.78;100.00;100581.47;4998041;28;46401;-56
2021/05/08 01:26:49;;;;;;;6.33;5.73;;;3.10;99.90;;;4.66;100.00;100583.25;4998594;28;40312;-59
2021/05/08 01:30:12;;;;;;;5.80;5.20;;;3.10;99.90;;;4.63;100.00;100584.31;5000390;28;32187;-58
2021/05/08 01:33:25;;;;;;;5.70;5.20;;;3.00;99.90;;;4.56;100.00;100576.94;5019749;28;35573;-58
2021/05/08 01:36:36;;;;;;;6.40;5.77;;;3.00;99.90;;;4.55;100.00;100585.84;5017504;28;38314;-58
2021/05/08 01:39:49;;;;;;;6.87;6.13;;;3.00;99.90;;;4.53;100.00;100577.16;5014940;28;36072;-57
2021/05/08 01:43:01;;;;;;;6.40;5.80;;;2.90;99.90;;;4.48;100.00;100579.28;5000393;28;34506;-59
2021/05/08 01:46:12;;;;;;;7.03;6.33;;;2.90;99.90;;;4.49;100.00;100589.78;5017539;28;37758;-55
2021/05/08 01:49:23;;;;;;;8.13;6.20;;;2.90;99.90;;;4.53;100.00;100585.09;5018192;28;35869;-56
2021/05/08 01:52:35;;;;;;;8.60;6.67;;;2.90;99.90;;;4.49;100.00;100583.63;4998725;28;36533;-58
2021/05/08 01:55:48;;;;;;;7.03;6.43;;;2.90;99.90;;;4.45;100.00;100588.28;4998248;28;36713;-57
2021/05/08 01:59:02;;;;;;;7.77;6.97;;;2.90;99.90;;;4.50;100.00;100582.66;4997005;28;37561;-58
2021/05/08 02:02:13;;;;;;;6.50;5.90;;;2.80;99.90;;;4.51;100.00;100587.84;4993544;28;42560;-57
2021/05/08 02:05:26;;;;;;;7.47;6.63;;;2.80;99.90;;;4.54;100.00;100590.28;4992522;28;44345;-57
2021/05/08 02:12:17;;;;;;;9.00;8.10;;;2.90;99.90;;;4.55;100.00;100580.53;5011787;28;52989;-60
2021/05/08 02:19:15;;;;;;;7.80;7.00;;;2.90;99.90;;;4.56;100.00;100583.09;5002160;28;45319;-60
2021/05/08 02:22:27;;;;;;;8.00;7.10;;;2.90;99.90;;;4.54;100.00;100574.41;4996237;28;41146;-58
2021/05/08 02:25:40;;;;;;;7.57;6.77;;;2.80;99.90;;;4.57;100.00;100575.97;5012889;28;38811;-58
2021/05/08 02:28:54;;;;;;;6.50;5.50;;;2.90;99.90;;;4.63;100.00;100581.66;4989171;28;44804;-58
2021/05/08 02:32:05;;;;;;;7.20;6.50;;;2.90;99.90;;;4.49;100.00;100591.56;4988603;28;53650;-56
2021/05/08 02:35:18;;;;;;;9.27;6.93;;;2.90;99.90;;;4.48;100.00;100595.19;5006260;28;43414;-58
2021/05/08 02:38:42;;;;;;;6.50;5.90;;;2.90;99.90;;;4.45;100.00;100592.78;4991694;28;46967;-57
2021/05/08 02:41:54;;;;;;;7.53;6.80;;;2.90;99.90;;;4.42;100.00;100591.19;5017238;28;37007;-57
2021/05/08 02:45:07;;;;;;;8.23;7.03;;;2.80;99.90;;;4.31;100.00;100596.41;5018953;28;38892;-57
2021/05/08 02:48:19;;;;;;;7.33;6.60;;;2.80;99.90;;;4.22;100.00;100599.72;4976151;28;40809;-58
2021/05/08 02:51:44;;;;;;;6.57;5.97;;;2.70;99.90;;;4.14;100.00;100602.06;4993077;28;37162;-57
2021/05/08 02:54:55;;;;;;;7.40;6.50;;;2.70;99.90;;;4.14;100.00;100599.41;5004163;28;40312;-57
2021/05/08 02:58:07;;;;;;;7.60;6.57;;;2.60;99.90;;;4.04;100.00;100599.22;5012198;28;44408;-58
2021/05/08 03:01:21;;;;;;;7.83;6.30;;;2.60;99.90;;;4.00;100.00;100603.03;4994031;28;43372;-59
2021/05/08 03:04:33;;;;;;;8.00;7.20;;;2.60;99.90;;;3.91;100.00;100606.34;5010189;28;38890;-59
2021/05/08 03:07:44;;;;;;;8.17;7.37;;;2.50;99.90;;;3.89;100.00;100606.47;4991972;28;42409;-59
2021/05/08 03:10:57;;;;;;;7.17;6.50;;;2.50;99.90;;;3.83;100.00;100614.00;4992798;28;40840;-58
2021/05/08 03:14:13;;;;;;;7.23;6.27;;;2.40;99.90;;;3.83;100.00;100609.50;4993098;28;41682;-58
2021/05/08 03:17:26;;;;;;;7.87;7.07;;;2.40;99.90;;;3.78;100.00;100616.09;5014199;28;37547;-59
2021/05/08 03:20:38;;;;;;;8.10;6.60;;;2.30;99.90;;;3.78;100.00;100614.31;5013566;28;37302;-59
2021/05/08 03:23:49;;;;;;;7.27;6.57;;;2.30;99.90;;;3.85;100.00;100617.34;5010498;28;38652;-60
2021/05/08 03:30:32;;;;;;;7.27;6.57;;;2.30;99.90;;;3.86;100.00;100611.09;4992479;28;40805;-59
2021/05/08 03:33:45;;;;;;;7.40;6.40;;;2.30;99.90;;;3.90;100.00;100607.31;5009299;28;41847;-59
2021/05/08 03:36:57;;;;;;;6.93;6.23;;;2.30;99.90;;;4.05;100.00;100600.94;5008250;28;41796;-58
2021/05/08 03:40:09;;;;;;;7.07;6.37;;;2.30;99.90;;;4.07;100.00;100606.97;5012169;28;35533;-58
2021/05/08 03:43:20;;;;;;;14.93;6.43;;;2.30;99.90;;;4.12;100.00;100615.41;5013593;28;39771;-59
2021/05/08 03:46:31;;;;;;;6.90;6.23;;;2.40;99.90;;;4.02;100.00;100618.81;5012440;28;43193;-58
2021/05/08 03:49:43;;;;;;;9.37;6.83;;;2.40;99.90;;;3.88;100.00;100615.34;5012856;28;49792;-57
2021/05/08 03:56:33;;;;;;;6.27;5.67;;;2.40;99.90;;;3.84;100.00;100628.91;4994500;28;39198;-57
2021/05/08 03:59:44;;;;;;;6.80;6.10;;;2.40;99.90;;;4.15;100.00;100624.94;5013259;28;37285;-59
2021/05/08 04:03:07;;;;;;;7.67;6.87;;;2.30;99.90;;;3.97;100.00;100630.59;5011412;28;43624;-59
2021/05/08 04:06:20;;;;;;;7.07;6.37;;;2.30;99.90;;;3.73;100.00;100639.38;5014793;28;33797;-59
2021/05/08 04:09:33;;;;;;;7.70;6.90;;;2.20;99.90;;;3.75;100.00;100634.84;5014306;28;40416;-58
2021/05/08 04:12:45;;;;;;;7.00;6.23;;;2.20;99.90;;;3.70;100.00;100639.63;5013163;28;41868;-58
2021/05/08 04:15:56;;;;;;;7.57;6.50;;;2.20;99.90;;;3.90;100.00;100637.28;5000936;28;47311;-59
2021/05/08 04:19:07;;;;;;;8.10;7.30;;;2.20;99.90;;;3.93;100.00;100641.50;5013795;28;38833;-58
2021/05/08 04:22:19;;;;;;;8.00;7.27;;;2.20;99.90;;;4.06;100.00;100644.16;5011431;28;49196;-60
2021/05/08 04:25:31;;;;;;;7.60;6.53;;;2.20;99.90;;;3.80;100.00;100645.97;5012223;28;39990;-58
2021/05/08 04:28:42;;;;;;;6.70;6.10;;;2.30;99.90;;;4.07;100.00;100640.53;4993928;28;40849;-59
2021/05/08 04:31:54;;;;;;;6.93;6.23;;;2.30;99.90;;;3.98;100.00;100647.31;4991136;28;38933;-59
2021/05/08 04:35:05;;;;;;;6.90;6.20;;;2.30;99.90;;;4.41;100.00;100653.09;5007665;28;45338;-58
2021/05/08 04:38:19;;;;;;;6.33;5.73;;;2.40;99.90;;;4.76;100.00;100658.47;5015203;28;33847;-59
2021/05/08 04:41:30;;;;;;;8.27;6.30;;;2.50;99.90;;;5.07;100.00;100653.56;5010060;28;51825;-59
2021/05/08 04:44:41;;;;;;;7.63;6.37;;;2.60;99.90;;;5.43;100.00;100652.63;5012273;28;35895;-58
2021/05/08 04:47:52;;;;;;;7.77;6.10;;;2.70;99.90;;;5.44;100.00;100654.31;5012823;28;35480;-59
2021/05/08 04:51:04;;;;;;;6.57;5.73;;;2.90;99.90;;;5.72;100.00;100652.06;4994704;28;39207;-59
2021/05/08 04:54:28;;;;;;;7.20;6.37;;;3.10;99.90;;;6.30;100.00;100657.34;5015464;28;35584;-59
2021/05/08 04:57:39;;;;;;;6.77;6.07;;;3.30;99.90;;;6.33;100.00;100665.88;5015342;28;41943;-59
2021/05/08 05:00:50;;;;;;;6.40;5.80;;;3.50;99.90;;;6.62;100.00;100658.25;5019544;28;34254;-59
2021/05/08 05:04:01;;;;;;;6.80;5.57;;;3.80;99.90;;;6.98;100.00;100653.56;5022267;28;27104;-59
2021/05/08 05:07:13;;;;;;;6.20;5.60;;;4.10;99.90;;;7.15;100.00;100647.69;5020060;28;28728;-57
2021/05/08 05:10:25;;;;;;;5.60;5.07;;;4.40;99.90;;;7.26;100.00;100652.97;5017131;28;32932;-59
2021/05/08 05:13:37;;;;;;;5.17;4.60;;;4.70;99.90;;;7.07;100.00;100653.63;5018856;28;31808;-58
2021/05/08 05:16:48;;;;;;;5.50;5.00;;;5.00;99.90;;;7.08;100.00;100657.16;5019651;28;28733;-59
2021/05/08 05:19:59;;;;;;;5.70;5.20;;;5.20;99.90;;;7.15;100.00;100655.69;5020224;28;27385;-60
2021/05/08 05:23:10;;;;;;;5.50;4.33;;;5.40;99.90;;;7.42;100.00;100663.16;5002100;28;23926;-58
2021/05/08 05:26:22;;;;;;;5.53;4.93;;;5.60;99.90;;;8.00;100.00;100666.22;5005336;28;20262;-59
2021/05/08 05:29:33;;;;;;;5.07;4.20;;;5.80;99.90;;;7.92;100.00;100659.69;5003678;28;21331;-59
2021/05/08 05:32:44;;;;;;;4.67;4.27;;;6.10;99.90;;;7.91;100.00;100662.53;4999293;28;26165;-59
2021/05/08 05:35:56;;;;;;;4.37;3.97;;;6.30;99.90;;;8.02;100.00;100664.25;4987545;28;23909;-60
2021/05/08 05:39:07;;;;;;;7.00;5.20;;;6.50;99.90;;;7.81;100.00;100672.25;4998568;28;23175;-58
2021/05/08 05:42:20;;;;;;;7.27;6.67;;;6.60;99.90;;;8.27;100.00;100664.66;5000521;28;26477;-58
2021/05/08 05:45:32;;;;;;;4.83;4.43;;;6.70;99.90;;;8.24;100.00;100666.75;5005772;28;20661;-59
2021/05/08 05:48:43;;;;;;;5.00;4.60;;;6.90;99.90;;;8.83;100.00;100658.81;5005425;28;20230;-59
2021/05/08 05:51:54;;;;;;;6.00;4.70;;;7.10;99.90;;;8.92;100.00;100673.97;5001966;28;20226;-59
2021/05/08 05:55:06;;;;;;;5.47;4.67;;;7.40;99.90;;;8.64;100.00;100672.97;5006887;28;20728;-59
2021/05/08 05:58:18;;;;;;;5.10;4.60;;;7.50;99.90;;;8.74;100.00;100678.31;5005649;28;20230;-59
2021/05/08 06:01:30;;;;;;;5.23;4.40;;;7.60;99.90;;;8.93;100.00;100673.00;5004838;28;20222;-59
2021/05/08 06:04:41;;;;;;;6.20;5.00;;;7.70;99.90;;;8.89;100.00;100670.75;4999220;28;21194;-59
2021/05/08 06:07:52;;;;;;;4.87;4.47;;;7.80;99.90;;;9.42;100.00;100681.03;5004300;28;21081;-59
2021/05/08 06:11:03;;;;;;;5.13;4.30;;;7.90;99.90;;;9.81;100.00;100680.00;5003698;28;25616;-57
2021/05/08 06:14:16;;;;;;;6.27;4.57;;;8.10;99.90;;;9.60;100.00;100682.03;5003839;28;21280;-60
2021/05/08 06:17:38;;;;;;;6.80;4.80;;;8.30;99.90;;;9.81;100.00;100681.84;5000655;28;20641;-59
2021/05/08 06:20:49;;;;;;;5.97;4.40;;;8.60;99.90;;;10.12;100.00;100685.16;5004163;28;22583;-58
2021/05/08 06:24:12;;;;;;;4.70;4.30;;;8.70;99.90;;;10.04;100.00;100686.72;5021707;28;20636;-59
2021/05/08 06:27:45;;;;;;;5.40;4.53;;;8.90;99.90;;;10.31;100.00;100682.44;5019809;28;22041;-59
2021/05/08 06:30:58;;;;;;;6.80;4.80;;;9.10;99.90;;;10.69;100.00;100681.41;5020619;28;23997;-58
2021/05/08 06:34:09;;;;;;;4.53;4.13;;;9.30;99.90;;;10.71;100.00;100687.47;5020974;28;20601;-59
2021/05/08 06:37:32;;;;;;;4.90;4.50;;;9.50;99.30;;;11.01;100.00;100673.72;5010500;28;20233;-60
2021/05/08 06:40:43;;;;;;;6.37;4.20;;;9.80;99.30;;;11.03;100.00;100670.91;5025575;28;23127;-57
2021/05/08 06:43:55;;;;;;;5.37;4.57;;;10.10;95.80;;;10.88;100.00;100675.13;5013433;28;20364;-59
2021/05/08 06:47:14;;;;;;;5.37;4.83;;;10.30;94.90;;;11.04;100.00;100672.59;5021163;28;20722;-58
2021/05/08 06:50:32;;;;;;;5.00;4.50;;;10.50;93.90;;;11.37;100.00;100674.63;5018861;28;20337;-59
2021/05/08 06:53:43;;;;;;;4.67;4.27;;;10.70;94.10;;;11.82;100.00;100679.88;5016418;28;20237;-59
2021/05/08 06:56:54;;;;;;;6.00;4.90;;;11.00;94.00;;;11.50;100.00;100679.56;5023986;28;20232;-58
2021/05/08 07:00:06;;;;;;;5.93;4.33;;;11.20;92.80;;;11.46;100.00;100687.09;5018719;28;20264;-58
2021/05/08 07:03:18;;;;;;;5.83;5.23;;;11.30;89.90;;;11.59;100.00;100680.47;5017175;28;20574;-57
2021/05/08 07:06:29;;;;;;;6.63;5.10;;;11.40;85.30;;;11.45;100.00;100676.50;5021365;28;20475;-59
2021/05/08 07:09:41;;;;;;;5.70;5.23;;;11.50;85.20;;;11.77;100.00;100684.84;5025160;28;20519;-59
2021/05/08 07:16:23;;;;;;;5.50;4.97;;;11.70;85.20;;;12.33;100.00;100691.59;4983633;28;20233;-59
2021/05/08 07:23:00;;;;;;;5.70;5.20;;;12.10;83.50;;;12.05;100.00;100690.06;5021949;28;20241;-58
2021/05/08 07:26:21;;;;;;;5.80;5.30;;;12.30;80.50;;;12.29;100.00;100684.00;5012760;28;20518;-60
2021/05/08 07:29:32;;;;;;;5.70;5.03;;;12.40;81.60;;;12.28;100.00;100679.63;5017242;28;20443;-59
2021/05/08 07:32:43;;;;;;;5.90;5.40;;;12.50;79.20;;;12.62;100.00;100683.16;5024786;28;20556;-59
2021/05/08 07:35:56;;;;;;;6.20;5.23;;;12.80;78.50;;;12.07;100.00;100680.03;5022255;28;20218;-59
2021/05/08 07:39:19;;;;;;;6.23;5.50;;;12.80;75.60;;;13.38;100.00;100683.03;5025721;28;20290;-59
2021/05/08 07:42:30;;;;;;;6.33;5.83;;;13.00;79.20;;;12.82;100.00;100684.56;5024747;28;20478;-58
2021/05/08 07:49:34;;;;;;;5.20;4.70;;;13.50;71.80;;;13.45;100.00;100683.22;5015344;28;20226;-58
2021/05/08 07:56:14;;;;;;;6.50;5.90;;;13.80;69.30;;;13.35;100.00;100683.38;5019095;28;20344;-59
2021/05/08 07:59:25;;;;;;;7.40;6.67;;;13.90;68.30;;;13.46;100.00;100679.53;5023990;28;20713;-57
2021/05/08 08:02:36;;;;;;;7.50;5.87;;;14.00;65.80;;;13.44;100.00;100684.22;5024250;28;20708;-59
2021/05/08 08:05:48;;;;;;;6.97;6.00;;;14.10;64.50;;;13.20;100.00;100685.03;5017159;28;20379;-59
2021/05/08 08:09:00;;;;;;;7.67;6.97;;;14.20;65.10;;;13.41;100.00;100682.72;5024522;28;20602;-60
2021/05/08 08:16:44;;;;;;;9.10;8.13;;;14.40;60.90;;;13.48;100.00;100691.78;4898152;28;20347;-58
2021/05/08 08:19:55;;;;;;;9.27;8.03;;;14.40;59.40;;;13.65;100.00;100685.41;4865763;29;20218;-60
2021/05/08 08:23:07;;;;;;;8.20;6.97;;;14.40;59.60;;;13.69;100.00;100688.59;4879676;28;20467;-59
2021/05/08 08:26:46;;;;;;;8.03;7.23;;;14.40;59.60;;;13.89;100.00;100691.78;4992121;28;20670;-59
2021/05/08 08:29:57;;;;;;;8.27;7.47;;;14.40;59.20;;;14.44;100.00;100693.72;5005048;28;20701;-60
2021/05/08 08:33:08;;;;;;;9.07;7.00;;;14.40;59.70;;;13.77;100.00;100693.97;5005081;28;20234;-59
2021/05/08 08:36:20;;;;;;;7.20;6.53;;;14.60;58.70;;;13.94;100.00;100686.75;5004492;28;20226;-60
2021/05/08 08:39:31;;;;;;;7.73;7.03;;;14.70;58.30;;;14.19;100.00;100687.53;4998886;28;20218;-59
2021/05/08 08:42:44;;;;;;;7.20;6.50;;;14.90;58.10;;;14.29;100.00;100683.63;5004073;28;20706;-59
2021/05/08 08:45:55;;;;;;;9.07;6.23;;;15.00;56.70;;;14.66;100.00;100687.56;5004673;28;20592;-59
2021/05/08 08:49:33;;;;;;;7.85;6.93;;;15.10;57.00;;;14.03;100.00;100675.78;5003597;28;20511;-59
2021/05/08 08:52:45;;;;;;;7.35;6.57;;;15.20;54.50;;;14.54;100.00;100679.03;4931574;28;20251;-59
2021/05/08 08:56:00;;;;;;;7.50;6.23;;;15.10;54.40;;;14.65;100.00;100678.66;4996886;28;20353;-60
2021/05/08 08:59:15;;;;;;;6.77;6.17;;;15.00;55.40;;;14.58;100.00;100675.00;5004653;28;20617;-60
2021/05/08 09:02:27;;;;;;;6.83;6.13;;;15.10;54.10;;;14.78;100.00;100675.41;5003305;28;20226;-59
2021/05/08 09:05:40;;;;;;;7.27;6.67;;;15.20;53.40;;;15.13;100.00;100678.56;5001132;28;20450;-60
2021/05/08 09:08:51;;;;;;;6.50;5.80;;;15.30;53.40;;;15.54;100.00;100679.97;4996976;28;20528;-60
2021/05/08 09:12:12;;;;;;;8.20;6.18;;;15.60;53.50;;;14.37;100.00;100683.59;5003606;28;20987;-60
2021/05/08 09:15:46;;;;;;;7.20;6.50;;;15.90;51.60;;;14.96;100.00;100673.25;4996173;28;20600;-58
2021/05/08 09:19:18;;;;;;;7.80;7.00;;;16.10;50.80;;;14.91;100.00;100675.66;4998206;28;20206;-58
2021/05/08 09:22:57;;;;;;;6.72;6.00;;;16.10;49.70;;;15.08;100.00;100676.44;5003732;28;21155;-59
2021/05/08 09:26:32;;;;;;;6.72;5.95;;;16.00;50.90;;;14.47;100.00;100674.50;5015693;28;20378;-59
2021/05/08 09:30:18;;;;;;;7.13;5.97;;;15.80;50.70;;;14.61;100.00;100671.09;4990078;28;20229;-59
2021/05/08 09:33:43;;;;;;;7.40;6.70;;;15.80;50.30;;;14.64;100.00;100666.19;4991989;28;20318;-60
2021/05/08 09:37:21;;;;;;;6.70;6.10;;;15.80;50.10;;;15.16;100.00;100665.59;5018156;28;20251;-59
2021/05/08 09:40:48;;;;;;;7.57;6.75;;;15.90;49.90;;;14.93;100.00;100660.16;5010934;28;20775;-58
2021/05/08 09:43:59;;;;;;;7.07;6.38;;;16.00;48.20;;;15.42;100.00;100657.97;5015118;28;20877;-58
2021/05/08 09:47:44;;;;;;;6.95;6.32;;;16.00;48.20;;;15.79;100.00;100662.59;5013725;28;20814;-58
2021/05/08 09:50:55;;;;;;;7.47;6.78;;;16.10;48.70;;;15.18;100.00;100660.84;5018920;28;20702;-59
2021/05/08 09:54:20;;;;;;;6.57;6.00;;;16.30;48.00;;;14.97;100.00;100661.47;5021226;28;20214;-59
2021/05/08 09:57:37;;;;;;;6.63;5.90;;;16.10;45.70;;;15.34;100.00;100660.72;5019990;28;20469;-58
2021/05/08 10:01:18;;;;;;;6.95;6.25;;;16.00;46.30;;;15.62;100.00;100638.63;5022306;28;20600;-59
2021/05/08 10:04:45;;;;;;;5.63;5.13;;;16.00;45.40;;;16.50;100.00;100636.81;4982369;28;20498;-59
2021/05/08 10:07:57;;;;;;;9.07;6.68;;;16.20;47.10;;;16.03;88.95;100641.78;4984627;28;21049;-60
2021/05/08 10:11:08;;;;;;;5.88;5.38;;;16.50;44.20;;;16.41;95.30;100634.41;5013623;28;20697;-60
2021/05/08 10:14:19;;;;;;;5.93;5.32;;;16.80;44.10;;;15.76;85.19;100632.44;5021230;28;20372;-60
2021/05/08 10:21:28;;;;;;;5.63;5.13;;;17.10;42.10;;;14.85;100.00;100633.25;4955688;28;20567;-59
2021/05/08 10:24:41;;;;;;;5.95;5.13;;;17.00;42.30;;;14.69;100.00;100644.97;5021667;28;20761;-60
2021/05/08 10:27:52;;;;;;;7.53;5.38;;;16.50;42.00;;;15.24;100.00;100640.41;5020766;28;21133;-57
2021/05/08 10:31:33;;;;;;;4.88;4.15;;;16.30;43.80;;;15.75;96.84;100633.44;5020880;28;20429;-60
2021/05/08 10:34:58;;;;;;;4.97;4.47;;;16.20;43.70;;;15.66;94.53;100629.16;4980885;28;20254;-59
2021/05/08 10:38:55;;;;;;;4.75;4.35;;;16.30;44.30;;;15.43;94.93;100624.59;4979010;28;20232;-60
2021/05/08 10:42:26;;;;;;;4.35;3.88;;;16.30;43.80;;;16.69;84.49;100615.69;5016890;28;20802;-60
2021/05/08 10:46:04;;;;;;;4.82;3.72;;;16.50;44.10;;;16.37;75.69;100623.16;5016789;28;21041;-59
2021/05/08 10:49:39;;;;;;;4.78;4.25;;;17.00;40.70;;;16.38;78.98;100616.72;4971953;28;20811;-60
2021/05/08 10:53:08;;;;;;;5.10;4.70;;;17.30;40.30;;;16.11;70.87;100607.44;4969514;28;20235;-60
2021/05/08 10:56:27;;;;;;;5.50;3.88;;;17.60;39.60;;;15.90;78.00;100615.44;4983852;28;20332;-60
2021/05/08 10:59:40;;;;;;;4.88;4.00;;;17.90;39.00;;;15.55;85.64;100616.94;5020735;28;20337;-60
2021/05/08 11:03:24;;;;;;;4.70;4.30;;;17.70;38.90;;;15.52;84.83;100614.56;5020984;28;20515;-60
2021/05/08 11:06:42;;;;;;;4.63;3.97;;;17.30;39.60;;;15.71;82.21;100607.84;4953924;28;20833;-60
2021/05/08 11:09:59;;;;;;;4.43;3.53;;;17.10;38.90;;;15.79;79.02;100610.47;5019334;28;20466;-60
2021/05/08 11:13:37;;;;;;;4.03;3.15;;;17.00;40.20;;;16.61;80.07;100600.38;5003240;28;20615;-60
2021/05/08 11:16:55;;;;;;;4.13;3.72;;;17.30;41.00;;;16.27;69.28;100592.06;4996806;28;20316;-60
2021/05/08 11:20:13;;;;;;;5.10;3.53;;;17.80;38.20;;;16.49;68.26;100596.50;5019332;28;20237;-61
2021/05/08 11:23:44;;;;;;;6.95;3.58;;;18.00;37.80;;;16.17;68.26;100587.78;5020172;28;20284;-61
2021/05/08 11:27:24;;;;;;;3.25;2.95;;;18.00;37.60;;;16.26;68.78;100577.72;5016717;28;20233;-61
2021/05/08 11:30:53;;;;;;;3.97;2.90;;;17.90;38.30;;;16.64;73.63;100580.28;5017201;28;20510;-61
2021/05/08 11:34:11;;;;;;;3.47;3.17;;;17.90;38.70;;;16.17;75.91;100589.66;5016613;28;20876;-61
2021/05/08 11:37:25;;;;;;;4.18;3.60;;;17.80;38.60;;;15.69;69.07;100580.25;5013004;28;20218;-60
2021/05/08 11:40:54;;;;;;;4.55;3.30;;;17.60;37.70;;;16.08;69.23;100585.34;5020200;28;20524;-61
2021/05/08 11:44:10;;;;;;;3.47;3.10;;;17.50;37.30;;;15.80;69.81;100583.31;5019510;28;20551;-60
2021/05/08 11:50:56;;;;;;;4.15;3.10;;;16.90;37.80;;;15.55;70.75;100592.69;4960659;28;20605;-59
2021/05/08 11:54:29;;;;;;;3.35;3.00;;;16.70;38.50;;;15.50;71.11;100586.94;5014164;28;20492;-60
2021/05/08 12:01:32;;;;;;;3.55;2.60;;;16.50;39.70;;;16.99;76.42;100568.63;5010001;28;20566;-62
2021/05/08 12:04:49;;;;;;;5.60;2.90;;;16.80;41.10;;;16.76;67.86;100567.97;5022074;28;20788;-61
2021/05/08 12:08:12;;;;;;;3.95;2.97;;;17.20;41.00;;;17.12;65.34;100567.91;5019005;28;20237;-61
2021/05/08 12:11:32;;;;;;;3.00;2.67;;;17.70;39.70;;;16.44;63.93;100563.84;5018703;28;20222;-60
2021/05/08 12:15:07;;;;;;;4.05;2.90;;;18.00;38.30;;;16.07;62.53;100556.72;5021236;28;20229;-59
2021/05/08 12:18:20;;;;;;;4.72;2.90;;;18.10;37.90;;;15.65;70.15;100566.28;5021851;28;20261;-60
2021/05/08 12:21:32;;;;;;;3.25;2.95;;;18.00;37.30;;;15.80;72.92;100558.19;5017736;28;20489;-61
2021/05/08 12:25:15;;;;;;;3.55;2.78;;;17.70;37.40;;;15.96;73.90;100558.00;5021392;28;21005;-61
2021/05/08 12:29:02;;;;;;;3.92;3.47;;;17.50;38.60;;;16.72;74.13;100559.38;5021952;28;20419;-61
2021/05/08 12:44:15;;;;;;;3.22;2.92;;;17.90;40.10;;;16.65;75.87;100533.34;4956222;28;20240;-59
2021/05/08 12:47:46;;;;;;;4.32;2.92;;;18.10;39.60;;;16.51;74.24;100535.88;5012774;28;20907;-61
2021/05/08 12:50:57;;;;;;;4.95;2.88;;;18.20;39.60;;;17.15;74.55;100525.09;5018572;28;20373;-60
2021/05/08 12:54:42;;;;;;;3.05;2.67;;;18.30;39.90;;;17.04;68.23;100517.53;5019416;28;20214;-61
2021/05/08 12:57:55;;;;;;;2.50;2.30;;;18.40;39.50;;;17.36;65.88;100518.81;5019385;28;21022;-61
2021/05/08 13:01:09;;;;;;;2.83;2.58;;;18.70;39.60;;;17.68;62.46;100516.59;5019316;28;20245;-61
2021/05/08 13:04:20;;;;;;;2.83;2.58;;;19.20;39.00;;;18.19;58.90;100504.31;5012499;28;20858;-61
2021/05/08 13:11:15;;;;;;;4.75;2.67;;;20.40;36.80;;;17.89;64.20;100511.91;5017281;28;20691;-59
2021/05/08 13:14:53;;;;;;;3.40;3.10;;;20.70;35.20;;;18.57;64.47;100504.66;5026638;28;20536;-60
2021/05/08 13:18:05;;;;;;;3.95;2.80;;;21.00;35.20;;;18.01;52.99;100498.63;4944968;28;20228;-61
2021/05/08 13:21:34;;;;;;;2.75;2.42;;;21.40;34.40;;;16.79;49.93;100498.16;5026936;28;20224;-61
2021/05/08 13:24:52;;;;;;;2.30;2.10;;;21.10;31.30;;;17.10;52.38;100496.97;5015372;28;20547;-61
2021/05/08 13:28:23;;;;;;;3.08;2.13;;;20.50;32.60;;;17.56;50.62;100500.84;5014554;28;20218;-60
2021/05/08 13:31:34;;;;;;;2.55;2.15;;;20.20;33.10;;;17.84;49.80;100498.13;5022363;28;20589;-61
2021/05/08 13:34:46;;;;;;;2.78;2.35;;;20.30;32.90;;;17.50;46.72;100493.53;5022153;28;20638;-61
2021/05/08 13:37:59;;;;;;;2.72;2.40;;;20.30;30.50;;;17.84;41.50;100491.88;5020189;28;20226;-61
2021/05/08 13:41:10;;;;;;;3.10;2.33;;;20.10;30.80;;;17.88;39.28;100488.59;5022207;28;20604;-62
2021/05/08 13:44:22;;;;;;;2.00;1.80;;;20.20;31.30;;;18.14;38.41;100481.63;5022345;28;20217;-62
2021/05/08 13:47:33;;;;;;;2.53;2.13;;;20.40;30.70;;;17.86;36.12;100478.97;5020985;28;20222;-62
2021/05/08 13:50:57;;;;;;;2.50;2.00;;;20.50;29.80;;;17.85;38.30;100480.84;5022199;28;20584;-61
2021/05/08 13:54:08;;;;;;;2.50;2.22;;;20.50;29.60;;;17.45;36.72;100479.75;5019528;28;20288;-62
2021/05/08 13:57:20;;;;;;;2.42;1.80;;;20.30;29.30;;;17.89;42.33;100465.06;5025238;28;20312;-62
2021/05/08 14:03:59;;;;;;;2.80;2.00;;;19.90;29.90;;;17.82;41.52;100453.34;5010751;28;20490;-61
2021/05/08 14:07:33;;;;;;;2.40;1.92;;;19.90;29.40;;;18.05;37.94;100444.94;5019156;28;20294;-60
2021/05/08 14:10:44;;;;;;;2.88;1.50;;;19.80;29.90;;;18.40;37.13;100445.66;5017530;28;20225;-61
2021/05/08 14:14:14;;;;;;;1.83;1.70;;;19.90;30.50;;;18.21;38.33;100444.53;5004791;28;20235;-60
2021/05/08 14:17:25;;;;;;;1.85;1.48;;;19.70;29.40;;;18.81;40.26;100437.38;5007492;28;20298;-60
2021/05/08 14:20:45;;;;;;;1.98;1.80;;;19.60;30.60;;;18.09;38.99;100452.41;5024251;28;20717;-60
2021/05/08 14:23:57;;;;;;;2.40;2.05;;;19.60;29.90;;;17.19;37.91;100444.41;5020206;28;20515;-60
2021/05/08 14:27:08;;;;;;;2.30;2.10;;;19.40;29.60;;;17.08;40.92;100450.34;5019344;28;20244;-62
2021/05/08 14:37:17;;;;;;;4.22;2.13;;;18.00;31.90;;;17.83;41.96;100431.50;5016194;28;20319;-61
2021/05/08 14:40:29;;;;;;;1.73;1.63;;;18.10;33.20;;;18.48;42.30;100427.31;5023105;28;20495;-61
2021/05/08 14:44:07;;;;;;;2.83;2.03;;;18.30;33.90;;;17.60;39.71;100437.19;5025171;28;20249;-61
2021/05/08 14:47:19;;;;;;;2.83;1.90;;;18.70;33.10;;;18.25;42.73;100430.41;4938650;28;20808;-61
2021/05/08 14:50:36;;;;;;;2.00;1.83;;;19.00;33.40;;;17.55;46.02;100426.16;5015551;28;20521;-62
2021/05/08 14:53:47;;;;;;;2.33;2.13;;;18.90;32.40;;;17.34;50.03;100428.91;5018979;28;20680;-61
2021/05/08 14:57:05;;;;;;;2.15;1.95;;;18.60;32.80;;;17.09;48.33;100420.44;5019794;28;20504;-61